createdAt,value
2019-03-13T00:01:36.156Z,2.87
2019-03-13T00:04:23.474Z,3.13
2019-03-13T00:07:10.716Z,3.47
2019-03-13T00:09:58.028Z,1.77
2019-03-13T00:12:45.525Z,2.47
2019-03-13T00:15:33.028Z,1.67
2019-03-13T00:18:20.662Z,1.07
2019-03-13T00:21:08.035Z,3.43
2019-03-13T00:23:55.275Z,5.93
2019-03-13T00:26:42.565Z,7.20
2019-03-13T00:29:30.063Z,4.70
2019-03-13T00:32:17.623Z,3.00
2019-03-13T00:35:04.731Z,1.33
2019-03-13T00:37:52.291Z,2.27
2019-03-13T00:40:39.939Z,5.07
2019-03-13T00:43:27.165Z,1.87
2019-03-13T00:46:14.774Z,2.03
2019-03-13T00:49:02.413Z,2.27
2019-03-13T00:51:49.893Z,2.33
2019-03-13T00:54:37.132Z,2.93
2019-03-13T00:57:24.591Z,2.93
2019-03-13T01:00:13.740Z,1.27
2019-03-13T01:03:00.647Z,2.00
2019-03-13T01:05:55.585Z,2.40
2019-03-13T01:08:42.840Z,2.40
2019-03-13T01:11:30.378Z,1.67
2019-03-13T01:14:18.016Z,1.47
2019-03-13T01:17:06.664Z,1.40
2019-03-13T01:19:53.894Z,1.53
2019-03-13T01:22:41.484Z,1.73
2019-03-13T01:25:28.692Z,3.30
2019-03-13T01:28:15.956Z,1.70
2019-03-13T01:31:11.216Z,3.37
2019-03-13T01:34:12.723Z,2.40
2019-03-13T01:36:59.458Z,1.57
2019-03-13T01:39:47.155Z,2.33
2019-03-13T01:42:34.711Z,4.00
2019-03-13T01:45:22.065Z,4.30
2019-03-13T01:48:09.642Z,3.70
2019-03-13T01:50:57.135Z,3.93
2019-03-13T01:53:44.685Z,2.27
2019-03-13T01:56:31.968Z,3.63
2019-03-13T01:59:19.799Z,2.20
2019-03-13T02:02:07.397Z,2.53
2019-03-13T02:04:54.915Z,4.57
2019-03-13T02:07:42.424Z,2.83
2019-03-13T02:10:29.997Z,2.90
2019-03-13T02:13:17.465Z,2.40
2019-03-13T02:16:05.118Z,2.20
2019-03-13T02:18:52.462Z,2.87
2019-03-13T02:21:40.046Z,4.63
2019-03-13T02:24:27.506Z,3.80
2019-03-13T02:27:15.058Z,2.00
2019-03-13T02:30:02.722Z,3.90
2019-03-13T02:32:50.320Z,7.70
2019-03-13T02:35:37.758Z,3.13
2019-03-13T02:38:25.142Z,3.80
2019-03-13T02:41:12.639Z,3.53
2019-03-13T02:44:00.009Z,4.00
2019-03-13T02:46:47.327Z,5.40
2019-03-13T02:49:35.073Z,5.37
2019-03-13T02:52:22.533Z,3.40
2019-03-13T02:55:10.277Z,2.67
2019-03-13T02:57:57.981Z,3.17
2019-03-13T03:01:07.427Z,2.93
2019-03-13T03:03:55.980Z,3.30
2019-03-13T03:06:43.558Z,4.07
2019-03-13T03:09:31.097Z,2.43
2019-03-13T03:12:18.721Z,3.90
2019-03-13T03:15:10.935Z,2.80
2019-03-13T03:17:58.589Z,2.90
2019-03-13T03:20:45.860Z,2.60
2019-03-13T03:23:33.063Z,3.37
2019-03-13T03:26:20.702Z,2.77
2019-03-13T03:29:08.499Z,3.83
2019-03-13T03:31:56.061Z,2.90
2019-03-13T03:34:43.413Z,2.60
2019-03-13T03:37:31.007Z,3.13
2019-03-13T03:40:22.657Z,2.33
2019-03-13T03:43:07.054Z,2.33
2019-03-13T03:45:54.369Z,3.00
2019-03-13T03:48:42.113Z,3.47
2019-03-13T03:51:29.167Z,2.63
2019-03-13T03:54:16.756Z,1.80
2019-03-13T03:57:04.117Z,1.40
2019-03-13T03:59:51.707Z,3.13
2019-03-13T04:02:39.243Z,2.13
2019-03-13T04:05:26.853Z,2.83
2019-03-13T04:08:14.536Z,2.03
2019-03-13T04:11:02.028Z,2.10
2019-03-13T04:13:49.227Z,4.67
2019-03-13T04:16:36.899Z,1.97
2019-03-13T04:19:24.022Z,3.20
2019-03-13T04:22:11.303Z,2.00
2019-03-13T04:25:10.138Z,2.30
2019-03-13T04:27:57.481Z,1.47
2019-03-13T04:30:44.505Z,1.50
2019-03-13T04:33:32.127Z,3.30
2019-03-13T04:36:19.488Z,3.17
2019-03-13T04:39:07.077Z,3.17
2019-03-13T04:41:54.802Z,4.03
2019-03-13T04:44:42.186Z,2.13
2019-03-13T04:47:29.780Z,3.83
2019-03-13T04:50:17.059Z,2.10
2019-03-13T04:53:04.639Z,2.53
2019-03-13T04:55:52.735Z,3.40
2019-03-13T04:58:40.084Z,3.10
2019-03-13T05:01:27.050Z,3.13
2019-03-13T05:04:14.052Z,3.77
2019-03-13T05:07:01.192Z,2.17
2019-03-13T05:09:48.703Z,2.23
2019-03-13T05:12:35.728Z,2.80
2019-03-13T05:15:23.006Z,2.37
2019-03-13T05:18:10.274Z,1.77
2019-03-13T05:20:57.267Z,2.00
2019-03-13T05:23:44.962Z,3.53
2019-03-13T05:26:32.231Z,1.53
2019-03-13T05:29:19.171Z,1.60
2019-03-13T05:32:06.486Z,2.27
2019-03-13T05:34:54.127Z,1.80
2019-03-13T05:37:41.384Z,1.83
2019-03-13T05:40:28.868Z,2.90
2019-03-13T05:43:16.557Z,3.67
2019-03-13T05:46:04.148Z,2.13
2019-03-13T05:48:51.479Z,2.07
2019-03-13T05:51:39.045Z,2.03
2019-03-13T05:54:26.709Z,1.77
2019-03-13T05:57:14.256Z,1.43
2019-03-13T06:00:01.689Z,2.17
2019-03-13T06:02:49.428Z,2.17
2019-03-13T06:05:36.912Z,2.80
2019-03-13T06:08:24.411Z,2.17
2019-03-13T06:11:11.973Z,2.30
2019-03-13T06:13:59.649Z,2.30
2019-03-13T06:16:47.239Z,1.63
2019-03-13T06:19:34.703Z,2.77
2019-03-13T06:22:22.367Z,1.40
2019-03-13T06:25:10.157Z,1.30
2019-03-13T06:27:57.427Z,1.80
2019-03-13T06:30:44.482Z,3.53
2019-03-13T06:33:32.220Z,2.13
2019-03-13T06:36:19.685Z,1.30
2019-03-13T06:39:07.423Z,1.43
2019-03-13T06:41:54.707Z,2.50
2019-03-13T06:44:41.960Z,2.13
2019-03-13T06:47:29.300Z,2.00
2019-03-13T06:50:17.226Z,2.20
2019-03-13T06:53:04.614Z,1.67
2019-03-13T06:55:52.195Z,2.03
2019-03-13T06:58:53.690Z,1.53
2019-03-13T07:01:49.954Z,3.83
2019-03-13T07:04:54.636Z,2.60
2019-03-13T07:07:51.330Z,2.93
2019-03-13T07:11:00.451Z,1.67
2019-03-13T07:13:56.462Z,1.83
2019-03-13T07:17:02.811Z,1.73
2019-03-13T07:20:14.304Z,1.60
2019-03-13T07:23:19.008Z,2.43
2019-03-13T07:26:42.883Z,3.40
2019-03-13T07:29:35.742Z,2.27
2019-03-13T07:32:47.641Z,1.93
2019-03-13T07:35:44.431Z,2.40
2019-03-13T07:39:02.814Z,1.60
2019-03-13T07:42:02.817Z,2.33
2019-03-13T07:45:07.152Z,1.30
2019-03-13T07:48:05.708Z,3.40
2019-03-13T07:51:12.419Z,1.50
2019-03-13T07:54:16.589Z,2.97
2019-03-13T07:57:35.004Z,2.77
2019-03-13T08:00:40.654Z,2.27
2019-03-13T08:03:41.218Z,2.00
2019-03-13T08:06:50.394Z,1.60
2019-03-13T08:09:47.893Z,1.40
2019-03-13T08:12:52.671Z,1.60
2019-03-13T08:15:58.698Z,1.40
2019-03-13T08:18:55.658Z,1.60
2019-03-13T08:22:07.968Z,2.60
2019-03-13T08:25:11.489Z,1.60
2019-03-13T08:28:16.486Z,2.33
2019-03-13T08:31:21.472Z,1.87
2019-03-13T08:34:28.041Z,3.33
2019-03-13T08:37:25.195Z,2.37
2019-03-13T08:40:22.267Z,1.97
2019-03-13T08:43:18.581Z,1.70
2019-03-13T08:46:12.914Z,4.27
2019-03-13T08:49:25.121Z,1.53
2019-03-13T08:52:37.506Z,3.73
2019-03-13T08:55:44.394Z,1.53
2019-03-13T08:58:56.365Z,3.17
2019-03-13T09:02:07.888Z,2.73
2019-03-13T09:05:01.027Z,1.87
2019-03-13T09:08:16.166Z,2.20
2019-03-13T09:11:21.503Z,1.83
2019-03-13T09:14:33.521Z,2.03
2019-03-13T09:17:45.097Z,1.87
2019-03-13T09:20:49.817Z,3.10
2019-03-13T09:23:58.514Z,2.50
2019-03-13T09:27:07.172Z,2.20
2019-03-13T09:30:16.209Z,2.30
2019-03-13T09:33:40.403Z,2.13
2019-03-13T09:36:52.344Z,3.43
2019-03-13T09:39:56.824Z,2.30
2019-03-13T09:43:01.130Z,2.50
2019-03-13T09:46:07.478Z,2.33
2019-03-13T09:49:22.150Z,2.43
2019-03-13T09:52:43.676Z,2.20
2019-03-13T09:55:48.244Z,2.20
2019-03-13T09:59:06.329Z,2.53
2019-03-13T10:02:18.533Z,3.57
2019-03-13T10:05:14.138Z,2.60
2019-03-13T10:08:32.377Z,2.63
2019-03-13T10:11:56.546Z,2.83
2019-03-13T10:14:53.971Z,3.20
2019-03-13T10:18:05.531Z,3.30
2019-03-13T10:21:14.432Z,3.47
2019-03-13T10:24:19.802Z,3.03
2019-03-13T10:27:23.294Z,3.33
2019-03-13T10:30:30.016Z,3.57
2019-03-13T10:33:36.200Z,3.57
2019-03-13T10:36:36.809Z,12.33
2019-03-13T10:39:34.707Z,3.10
2019-03-13T10:42:50.010Z,3.50
2019-03-13T10:45:59.195Z,3.90
2019-03-13T10:49:07.975Z,4.00
2019-03-13T10:52:29.051Z,3.70
2019-03-13T10:55:32.101Z,3.63
2019-03-13T10:58:34.454Z,3.47
2019-03-13T11:01:35.715Z,3.77
2019-03-13T11:04:53.919Z,3.90
2019-03-13T11:07:58.328Z,4.10
2019-03-13T11:11:13.380Z,4.27
2019-03-13T11:14:16.237Z,4.43
2019-03-13T11:17:28.261Z,6.00
2019-03-13T11:20:36.745Z,5.07
2019-03-13T11:23:51.934Z,4.67
2019-03-13T11:26:48.427Z,5.00
2019-03-13T11:30:00.951Z,4.97
2019-03-13T11:33:05.675Z,5.20
2019-03-13T11:35:58.783Z,4.37
2019-03-13T11:39:08.331Z,4.67
2019-03-13T11:42:23.866Z,5.13
2019-03-13T11:45:45.069Z,4.93
2019-03-13T11:49:00.093Z,4.37
2019-03-13T11:52:04.459Z,4.60
2019-03-13T11:54:57.692Z,4.47
2019-03-13T11:58:02.490Z,4.67
2019-03-13T12:01:13.287Z,4.40
2019-03-13T12:04:31.187Z,4.70
2019-03-13T12:07:35.268Z,3.97
2019-03-13T12:10:50.326Z,3.80
2019-03-13T12:13:59.383Z,4.00
2019-03-13T12:17:03.734Z,4.17
2019-03-13T12:20:05.635Z,3.83
2019-03-13T12:23:10.644Z,3.83
2019-03-13T12:26:09.587Z,4.10
2019-03-13T12:29:14.195Z,3.97
2019-03-13T12:32:31.987Z,4.00
2019-03-13T12:35:41.184Z,4.37
2019-03-13T12:38:36.077Z,3.67
2019-03-13T12:41:42.086Z,4.07
2019-03-13T12:44:41.613Z,4.20
2019-03-13T12:48:15.859Z,3.87
2019-03-13T12:50:59.905Z,3.63
2019-03-13T12:54:02.800Z,3.70
2019-03-13T12:57:08.057Z,4.03
2019-03-13T13:00:17.098Z,6.43
2019-03-13T13:03:26.350Z,4.30
2019-03-13T13:06:28.643Z,3.53
2019-03-13T13:09:46.800Z,4.43
2019-03-13T13:12:51.502Z,4.60
2019-03-13T13:16:09.910Z,5.80
2019-03-13T13:18:57.127Z,5.30
2019-03-13T13:21:44.886Z,3.67
2019-03-13T13:24:31.909Z,4.13
2019-03-13T13:27:19.886Z,4.33
2019-03-13T13:30:07.646Z,4.03
2019-03-13T13:32:54.578Z,3.73
2019-03-13T13:35:42.056Z,5.03
2019-03-13T13:38:29.453Z,4.03
2019-03-13T13:41:16.971Z,4.07
2019-03-13T13:44:04.482Z,4.30
2019-03-13T13:46:52.105Z,4.77
2019-03-13T13:49:39.661Z,4.03
2019-03-13T13:52:27.118Z,5.37
2019-03-13T13:55:14.648Z,4.33
2019-03-13T13:58:02.321Z,5.03
2019-03-13T14:00:49.849Z,6.30
2019-03-13T14:03:37.306Z,4.97
2019-03-13T14:06:24.775Z,5.80
2019-03-13T14:09:12.343Z,5.90
2019-03-13T14:11:59.837Z,7.33
2019-03-13T14:14:46.894Z,5.13
2019-03-13T14:17:34.138Z,7.70
2019-03-13T14:20:20.910Z,5.90
2019-03-13T14:23:08.385Z,5.30
2019-03-13T14:25:55.909Z,6.67
2019-03-13T14:28:42.927Z,6.00
2019-03-13T14:31:30.494Z,5.03
2019-03-13T14:34:18.026Z,6.10
2019-03-13T14:37:05.157Z,5.77
2019-03-13T14:39:52.486Z,6.93
2019-03-13T14:42:39.955Z,6.03
2019-03-13T14:45:27.570Z,7.83
2019-03-13T14:48:15.042Z,4.80
2019-03-13T14:51:01.944Z,5.73
2019-03-13T14:53:49.277Z,4.10
2019-03-13T14:56:36.944Z,7.37
2019-03-13T14:59:24.459Z,4.43
2019-03-13T15:02:12.029Z,4.53
2019-03-13T15:04:59.527Z,4.67
2019-03-13T15:07:47.110Z,4.57
2019-03-13T15:10:34.590Z,4.93
2019-03-13T15:13:21.627Z,4.50
2019-03-13T15:16:08.733Z,4.67
2019-03-13T15:18:55.722Z,6.23
2019-03-13T15:21:43.009Z,5.80
2019-03-13T15:24:30.344Z,3.67
2019-03-13T15:27:17.799Z,6.17
2019-03-13T15:30:06.514Z,6.43
2019-03-13T15:32:53.611Z,6.80
2019-03-13T15:35:40.651Z,4.73
2019-03-13T15:38:27.947Z,4.23
2019-03-13T15:41:15.463Z,6.33
2019-03-13T15:44:02.482Z,4.90
2019-03-13T15:46:49.616Z,6.70
2019-03-13T15:49:37.116Z,5.47
2019-03-13T15:52:24.766Z,5.10
2019-03-13T15:55:12.434Z,4.17
2019-03-13T15:57:59.791Z,4.80
2019-03-13T16:00:46.823Z,4.77
2019-03-13T16:03:34.158Z,4.67
2019-03-13T16:06:21.686Z,6.17
2019-03-13T16:09:09.282Z,4.60
2019-03-13T16:11:56.824Z,5.97
2019-03-13T16:14:44.543Z,4.83
2019-03-13T16:17:31.803Z,4.77
2019-03-13T16:20:19.702Z,3.27
2019-03-13T16:23:07.015Z,4.97
2019-03-13T16:25:54.524Z,6.33
2019-03-13T16:28:42.112Z,4.27
2019-03-13T16:31:29.425Z,4.63
2019-03-13T16:34:17.095Z,5.20
2019-03-13T16:37:04.642Z,4.10
2019-03-13T16:39:52.103Z,4.30
2019-03-13T16:42:39.728Z,4.00
2019-03-13T16:45:27.332Z,4.33
2019-03-13T16:48:14.907Z,4.37
2019-03-13T16:51:02.391Z,5.17
2019-03-13T16:53:51.565Z,6.87
2019-03-13T16:56:39.358Z,5.90
2019-03-13T16:59:26.922Z,5.50
2019-03-13T17:02:14.434Z,5.10
2019-03-13T17:05:02.062Z,5.30
2019-03-13T17:07:50.016Z,5.80
2019-03-13T17:10:37.531Z,4.63
2019-03-13T17:13:24.720Z,4.83
2019-03-13T17:16:12.065Z,3.40
2019-03-13T17:18:59.164Z,5.70
2019-03-13T17:21:46.630Z,5.63
2019-03-13T17:24:34.335Z,6.47
2019-03-13T17:27:21.907Z,5.67
2019-03-13T17:30:10.671Z,3.77
2019-03-13T17:32:57.703Z,5.53
2019-03-13T17:35:45.161Z,8.50
2019-03-13T17:38:32.637Z,5.80
2019-03-13T17:41:20.345Z,4.27
2019-03-13T17:44:07.321Z,5.33
2019-03-13T17:46:54.946Z,7.90
2019-03-13T17:49:42.377Z,5.40
2019-03-13T17:52:29.927Z,5.17
2019-03-13T17:55:17.479Z,7.47
2019-03-13T17:58:04.780Z,6.33
2019-03-13T18:00:52.295Z,4.70
2019-03-13T18:03:39.096Z,4.23
2019-03-13T18:06:26.705Z,6.93
2019-03-13T18:09:14.277Z,7.87
2019-03-13T18:12:01.521Z,6.40
2019-03-13T18:14:48.624Z,6.57
2019-03-13T18:17:36.074Z,9.00
2019-03-13T18:20:23.659Z,5.70
2019-03-13T18:23:11.243Z,5.60
2019-03-13T18:25:58.943Z,6.37
2019-03-13T18:28:46.179Z,7.90
2019-03-13T18:31:33.877Z,7.57
2019-03-13T18:34:20.879Z,6.53
2019-03-13T18:37:07.882Z,8.83
2019-03-13T18:39:54.861Z,6.17
2019-03-13T18:42:41.952Z,6.97
2019-03-13T18:45:29.305Z,8.63
2019-03-13T18:48:16.860Z,7.40
2019-03-13T18:51:04.579Z,8.13
2019-03-13T18:53:52.173Z,7.33
2019-03-13T18:56:39.385Z,9.77
2019-03-13T18:59:26.930Z,7.93
2019-03-13T19:02:13.998Z,9.50
2019-03-13T19:05:01.464Z,7.43
2019-03-13T19:07:48.974Z,7.93
2019-03-13T19:10:36.138Z,4.27
2019-03-13T19:13:24.047Z,11.63
2019-03-13T19:16:11.278Z,10.33
2019-03-13T19:18:58.327Z,9.50
2019-03-13T19:21:45.895Z,8.80
2019-03-13T19:24:33.614Z,9.83
2019-03-13T19:27:21.096Z,6.97
2019-03-13T19:30:12.838Z,9.77
2019-03-13T19:33:00.582Z,10.67
2019-03-13T19:35:48.354Z,8.90
2019-03-13T19:38:35.810Z,10.80
2019-03-13T19:41:23.393Z,8.30
2019-03-13T19:44:10.914Z,6.83
2019-03-13T19:46:58.359Z,8.37
2019-03-13T19:49:45.682Z,9.30
2019-03-13T19:52:33.182Z,9.40
2019-03-13T19:55:20.739Z,7.47
2019-03-13T19:58:08.255Z,7.83
2019-03-13T20:00:55.354Z,8.90
2019-03-13T20:03:54.728Z,10.77
2019-03-13T20:06:41.701Z,10.03
2019-03-13T20:09:20.002Z,8.43
2019-03-13T20:12:07.601Z,8.60
2019-03-13T20:14:54.555Z,9.87
2019-03-13T20:17:42.371Z,8.30
2019-03-13T20:20:29.361Z,9.47
2019-03-13T20:23:16.524Z,9.93
2019-03-13T20:26:03.541Z,8.23
2019-03-13T20:28:51.076Z,8.57
2019-03-13T20:31:38.729Z,6.67
2019-03-13T20:34:25.817Z,9.67
2019-03-13T20:37:12.852Z,11.57
2019-03-13T20:39:59.924Z,9.67
2019-03-13T20:42:47.275Z,7.53
2019-03-13T20:45:35.027Z,9.63
2019-03-13T20:48:22.538Z,9.23
2019-03-13T20:51:10.133Z,12.07
2019-03-13T20:53:57.699Z,9.87
2019-03-13T20:56:45.402Z,9.23
2019-03-13T20:59:32.918Z,10.37
2019-03-13T21:02:19.667Z,11.57
2019-03-13T21:05:07.623Z,11.20
2019-03-13T21:07:55.116Z,10.90
2019-03-13T21:10:42.428Z,9.17
2019-03-13T21:13:30.036Z,12.27
2019-03-13T21:16:17.649Z,10.73
2019-03-13T21:19:04.730Z,11.07
2019-03-13T21:21:51.724Z,10.73
2019-03-13T21:24:39.388Z,11.60
2019-03-13T21:27:26.855Z,13.33
2019-03-13T21:30:15.449Z,9.10
2019-03-13T21:33:02.734Z,11.10
2019-03-13T21:35:50.382Z,10.63
2019-03-13T21:38:37.875Z,9.23
2019-03-13T21:41:25.515Z,10.57
2019-03-13T21:44:12.994Z,10.77
2019-03-13T21:47:00.414Z,10.80
2019-03-13T21:49:47.887Z,10.67
2019-03-13T21:52:35.544Z,10.03
2019-03-13T21:55:22.659Z,10.13
2019-03-13T21:58:10.032Z,12.13
2019-03-13T22:00:57.544Z,10.60
2019-03-13T22:03:45.067Z,10.57
2019-03-13T22:06:32.711Z,14.17
2019-03-13T22:09:20.343Z,11.13
2019-03-13T22:12:07.878Z,9.20
2019-03-13T22:14:54.842Z,13.30
2019-03-13T22:17:41.994Z,9.10
2019-03-13T22:20:29.538Z,12.00
2019-03-13T22:23:16.747Z,13.20
2019-03-13T22:26:04.476Z,10.60
2019-03-13T22:28:52.022Z,12.40
2019-03-13T22:31:39.658Z,8.57
2019-03-13T22:34:26.936Z,9.50
2019-03-13T22:37:14.506Z,10.40
2019-03-13T22:40:01.949Z,11.83
2019-03-13T22:42:49.050Z,11.47
2019-03-13T22:45:36.442Z,9.47
2019-03-13T22:48:23.973Z,10.83
2019-03-13T22:51:11.455Z,11.60
2019-03-13T22:53:58.943Z,13.37
2019-03-13T22:56:46.014Z,10.27
2019-03-13T22:59:34.391Z,13.83
2019-03-13T23:02:21.918Z,11.50
2019-03-13T23:05:09.321Z,10.43
2019-03-13T23:07:56.589Z,12.53
2019-03-13T23:10:44.027Z,10.73
2019-03-13T23:13:31.625Z,11.40
2019-03-13T23:16:19.252Z,13.43
2019-03-13T23:19:06.803Z,11.60
2019-03-13T23:21:54.243Z,12.07
2019-03-13T23:24:41.554Z,16.10
2019-03-13T23:27:28.776Z,11.53
2019-03-13T23:30:16.257Z,14.50
2019-03-13T23:33:03.829Z,13.40
2019-03-13T23:35:51.403Z,12.90
2019-03-13T23:38:38.644Z,10.90
2019-03-13T23:41:26.109Z,15.80
2019-03-13T23:44:13.410Z,9.90
2019-03-13T23:47:00.492Z,12.80
2019-03-13T23:49:48.058Z,11.43
2019-03-13T23:52:35.577Z,11.77
2019-03-13T23:55:22.989Z,10.17
2019-03-13T23:58:11.483Z,11.97
